Time;durP1;ratioP1;P1;durP2;ratioP2;P2;SDS_P1;SDS_P2;PMS_P1;PMS_P2;Temp;Humidity;BMP_temperature;BMP_pressure;BME280_temperature;BME280_humidity;BME280_pressure;Samples;Min_cycle;Max_cycle;Signal;HPM_P1;HPM_P2
2023/07/11 00:00:28;;;;;;;9.80;5.80;;;;;;;17.76;60.03;100266.38;105932;1254;61717;-62
2023/07/11 00:02:55;;;;;;;10.20;6.20;;;;;;;17.76;60.12;100268.55;106024;1254;63737;-61
2023/07/11 00:05:23;;;;;;;10.90;5.70;;;;;;;17.76;60.17;100266.36;105842;1255;60452;-62
2023/07/11 00:07:51;;;;;;;11.30;5.60;;;;;;;17.78;60.36;100266.17;105445;1254;61130;-64
2023/07/11 00:10:19;;;;;;;9.90;5.50;;;;;;;17.80;60.34;100262.38;105881;1257;63641;-65
2023/07/11 00:12:47;;;;;;;7.90;5.00;;;;;;;17.87;60.15;100269.87;105840;1254;61441;-65
2023/07/11 00:15:15;;;;;;;7.90;5.10;;;;;;;17.92;60.21;100267.31;105871;1259;73291;-64
2023/07/11 00:17:44;;;;;;;9.10;5.20;;;;;;;17.96;60.12;100262.37;106021;1254;60514;-64
2023/07/11 00:20:13;;;;;;;11.80;5.60;;;;;;;18.00;60.16;100261.45;105906;1259;60989;-65
2023/07/11 00:22:42;;;;;;;11.70;6.00;;;;;;;18.01;60.20;100256.68;105885;1259;64871;-66
2023/07/11 00:25:10;;;;;;;11.40;6.40;;;;;;;18.02;60.26;100263.29;105829;1254;61520;-66
2023/07/11 00:27:37;;;;;;;9.00;6.10;;;;;;;18.02;60.35;100264.02;105783;1259;62600;-66
2023/07/11 00:30:06;;;;;;;9.80;6.30;;;;;;;18.01;60.42;100265.27;105840;1256;60393;-66
2023/07/11 00:32:34;;;;;;;14.50;7.50;;;;;;;18.03;60.41;100265.23;105897;1254;60435;-65
2023/07/11 00:35:02;;;;;;;12.50;7.70;;;;;;;18.06;60.34;100265.63;105885;1262;64920;-65
2023/07/11 00:37:29;;;;;;;14.80;8.60;;;;;;;18.05;60.25;100266.18;105828;1257;61366;-64
2023/07/11 00:39:57;;;;;;;12.20;7.90;;;;;;;18.02;60.36;100267.04;105757;1257;63829;-66
2023/07/11 00:42:25;;;;;;;15.30;8.80;;;;;;;17.97;60.23;100267.05;105845;1259;60634;-63
2023/07/11 00:45:03;;;;;;;13.50;7.70;;;;;;;17.89;60.10;100270.33;105953;1259;60354;-65
2023/07/11 00:47:31;;;;;;;14.60;6.80;;;;;;;17.78;59.90;100272.20;105887;1259;64923;-67
2023/07/11 00:50:06;;;;;;;14.20;8.10;;;;;;;17.63;59.81;100271.35;105904;1255;61332;-66
2023/07/11 00:52:35;;;;;;;12.00;6.60;;;;;;;17.50;59.99;100269.84;105814;1257;63734;-66
2023/07/11 00:55:07;;;;;;;11.80;6.00;;;;;;;17.42;60.17;100266.99;105914;1258;60482;-67
2023/07/11 00:57:36;;;;;;;9.80;6.00;;;;;;;17.39;60.19;100271.98;105397;1259;60542;-70
2023/07/11 01:00:04;;;;;;;10.90;6.30;;;;;;;17.32;60.42;100271.54;105472;1259;64389;-67
2023/07/11 01:02:33;;;;;;;10.10;6.10;;;;;;;17.20;60.72;100271.94;105655;1259;61392;-73
2023/07/11 01:05:01;;;;;;;13.80;6.70;;;;;;;17.06;60.96;100272.64;105480;1257;71454;-70
2023/07/11 01:07:31;;;;;;;10.30;6.90;;;;;;;16.98;61.10;100269.52;105875;1254;60558;-76
2023/07/11 01:09:58;;;;;;;10.20;6.70;;;;;;;16.88;61.47;100271.96;105803;1254;60464;-75
2023/07/11 01:12:26;;;;;;;9.60;6.50;;;;;;;16.82;61.80;100269.39;105424;1260;64861;-74
2023/07/11 01:14:53;;;;;;;9.20;6.30;;;;;;;16.80;61.96;100267.38;105884;1257;60498;-74
2023/07/11 01:17:30;;;;;;;10.70;6.50;;;;;;;16.78;62.04;100266.15;105858;1256;63662;-70
2023/07/11 01:20:01;;;;;;;9.50;6.20;;;;;;;16.76;62.09;100264.45;106000;1257;60531;-70
2023/07/11 01:22:29;;;;;;;13.90;6.40;;;;;;;16.73;62.27;100263.16;105912;1253;60471;-74
2023/07/11 01:25:10;;;;;;;8.90;6.30;;;;;;;16.68;62.40;100260.67;105328;1254;63706;-70
2023/07/11 01:27:39;;;;;;;13.20;6.20;;;;;;;16.63;62.61;100258.95;105993;1260;60932;-75
2023/07/11 01:30:08;;;;;;;10.80;6.30;;;;;;;16.62;62.83;100259.87;105668;1260;63841;-76
2023/07/11 01:32:36;;;;;;;8.60;6.00;;;;;;;16.65;62.87;100255.71;105411;1257;60561;-75
2023/07/11 01:35:05;;;;;;;10.60;6.20;;;;;;;16.67;62.90;100256.55;105973;1259;60454;-73
2023/07/11 01:37:34;;;;;;;11.70;6.50;;;;;;;16.66;63.01;100260.70;105532;1254;64965;-74
2023/07/11 01:40:02;;;;;;;10.80;5.70;;;;;;;16.63;63.17;100258.75;105534;1254;62093;-69
2023/07/11 01:42:30;;;;;;;10.30;5.90;;;;;;;16.57;63.35;100262.73;105675;1254;62476;-62
2023/07/11 01:44:58;;;;;;;10.20;6.20;;;;;;;16.53;63.48;100262.85;105286;1257;60527;-64
2023/07/11 01:47:25;;;;;;;8.90;5.70;;;;;;;16.53;63.49;100265.61;105562;1254;60520;-63
2023/07/11 01:49:53;;;;;;;9.40;5.00;;;;;;;16.57;63.27;100263.33;105364;1254;65296;-59
2023/07/11 01:52:21;;;;;;;10.70;5.60;;;;;;;16.60;63.33;100262.29;105395;1254;61549;-60
2023/07/11 01:54:49;;;;;;;10.50;6.10;;;;;;;16.60;63.47;100270.27;105530;1258;63692;-59
2023/07/11 01:57:17;;;;;;;10.10;6.00;;;;;;;16.58;63.55;100269.37;105319;1254;60565;-59
2023/07/11 01:59:45;;;;;;;9.50;5.70;;;;;;;16.56;63.75;100264.75;105331;1254;61752;-59
2023/07/11 02:02:12;;;;;;;10.60;6.30;;;;;;;16.55;63.78;100264.05;105428;1254;65343;-59
2023/07/11 02:04:40;;;;;;;8.30;5.10;;;;;;;16.57;63.77;100263.33;105300;1254;61455;-61
2023/07/11 02:07:09;;;;;;;9.70;5.80;;;;;;;16.60;63.91;100257.61;105280;1257;63718;-59
2023/07/11 02:09:37;;;;;;;9.70;4.90;;;;;;;16.64;63.91;100254.95;105567;1255;60450;-64
2023/07/11 02:12:08;;;;;;;9.80;5.80;;;;;;;16.63;63.97;100256.75;105761;1261;60768;-62
2023/07/11 02:14:36;;;;;;;9.10;5.80;;;;;;;16.62;64.11;100258.65;105126;1254;63718;-61
2023/07/11 02:17:04;;;;;;;10.20;5.40;;;;;;;16.60;64.22;100256.55;105883;1254;69991;-62
2023/07/11 02:19:32;;;;;;;7.90;5.30;;;;;;;16.58;64.22;100252.41;105967;1257;63689;-61
2023/07/11 02:22:01;;;;;;;8.40;5.60;;;;;;;16.60;64.30;100251.58;105892;1258;60584;-62
2023/07/11 02:24:28;;;;;;;7.80;4.80;;;;;;;16.66;64.25;100253.82;105869;1257;60396;-62
2023/07/11 02:26:56;;;;;;;7.60;5.00;;;;;;;16.73;64.21;100254.33;105746;1257;64907;-61
2023/07/11 02:29:24;;;;;;;8.90;4.50;;;;;;;16.81;64.12;100256.13;105880;1261;61703;-60
2023/07/11 02:31:51;;;;;;;7.50;4.70;;;;;;;16.86;64.08;100256.41;105531;1255;63658;-55
2023/07/11 02:34:19;;;;;;;7.80;4.70;;;;;;;16.90;64.09;100256.59;105369;1259;61088;-57
2023/07/11 02:36:46;;;;;;;9.10;5.00;;;;;;;16.92;64.07;100254.39;105347;1255;60466;-64
2023/07/11 02:39:14;;;;;;;7.90;5.30;;;;;;;16.90;64.03;100253.73;105343;1257;65057;-64
2023/07/11 02:42:37;;;;;;;6.70;4.10;;;;;;;16.91;64.10;100253.27;105616;1262;60119;-61
2023/07/11 02:45:05;;;;;;;6.80;4.30;;;;;;;16.96;64.24;100257.02;105528;1263;63799;-60
2023/07/11 02:47:33;;;;;;;7.70;4.40;;;;;;;16.99;64.28;100259.10;105006;1265;60562;-60
2023/07/11 02:50:03;;;;;;;6.80;4.40;;;;;;;17.00;64.43;100264.16;105355;1259;60917;-60
2023/07/11 02:52:33;;;;;;;9.60;5.10;;;;;;;16.98;64.44;100267.98;105376;1260;64953;-61
2023/07/11 02:55:01;;;;;;;7.20;4.70;;;;;;;16.90;64.48;100264.85;106008;1259;60482;-61
2023/07/11 02:57:28;;;;;;;7.00;4.70;;;;;;;16.85;64.75;100258.70;105755;1257;62608;-61
2023/07/11 02:59:56;;;;;;;7.50;4.60;;;;;;;16.86;64.82;100257.69;105879;1254;60518;-60
2023/07/11 03:02:24;;;;;;;8.00;4.80;;;;;;;16.92;64.75;100258.94;105481;1259;60488;-62
2023/07/11 03:04:51;;;;;;;7.70;4.40;;;;;;;17.01;64.78;100261.25;105346;1260;64915;-59
2023/07/11 03:07:19;;;;;;;7.00;4.60;;;;;;;17.08;64.77;100257.76;105210;1259;62443;-60
2023/07/11 03:09:46;;;;;;;7.60;4.70;;;;;;;17.17;64.93;100253.92;105374;1254;63885;-60
2023/07/11 03:12:14;;;;;;;6.90;4.50;;;;;;;17.26;64.75;100252.20;105167;1260;61668;-60
2023/07/11 03:14:41;;;;;;;6.90;4.40;;;;;;;17.33;64.50;100252.44;105186;1257;60443;-60
2023/07/11 03:17:08;;;;;;;7.20;3.90;;;;;;;17.37;64.38;100251.43;105270;1254;64987;-61
2023/07/11 03:19:36;;;;;;;9.80;5.00;;;;;;;17.38;64.23;100257.94;105889;1259;60461;-60
2023/07/11 03:22:03;;;;;;;7.00;4.40;;;;;;;17.35;64.08;100257.11;105891;1259;63681;-62
2023/07/11 03:24:31;;;;;;;7.20;4.80;;;;;;;17.37;64.19;100255.67;105333;1259;60409;-60
2023/07/11 03:26:59;;;;;;;9.80;4.80;;;;;;;17.44;64.33;100254.33;105597;1257;61678;-60
2023/07/11 03:29:26;;;;;;;8.10;5.40;;;;;;;17.53;64.34;100251.95;105315;1259;64927;-61
2023/07/11 03:31:54;;;;;;;7.90;4.10;;;;;;;17.60;64.16;100252.87;105295;1258;60450;-58
2023/07/11 03:34:21;;;;;;;7.90;5.50;;;;;;;17.70;63.99;100254.71;105334;1254;63713;-62
2023/07/11 03:36:48;;;;;;;8.20;5.60;;;;;;;17.71;63.56;100250.52;105890;1257;60533;-62
2023/07/11 03:39:18;;;;;;;7.90;5.20;;;;;;;17.71;63.68;100248.52;105867;1255;60910;-67
2023/07/11 03:41:45;;;;;;;8.30;5.60;;;;;;;17.77;63.93;100247.97;105869;1254;65609;-63
2023/07/11 03:44:13;;;;;;;8.50;5.30;;;;;;;17.86;63.97;100248.66;105947;1259;60907;-63
2023/07/11 03:46:40;;;;;;;8.80;5.20;;;;;;;17.93;63.82;100253.20;106022;1257;62513;-61
2023/07/11 03:49:09;;;;;;;9.30;4.60;;;;;;;17.98;63.59;100252.55;106062;1260;60964;-61
2023/07/11 03:51:36;;;;;;;7.30;5.10;;;;;;;17.99;63.34;100251.91;105845;1254;60683;-56
2023/07/11 03:54:04;;;;;;;10.50;5.40;;;;;;;17.97;63.42;100252.11;105678;1260;65312;-60
2023/07/11 03:56:31;;;;;;;7.50;4.70;;;;;;;17.95;63.63;100251.03;105316;1254;61328;-66
2023/07/11 03:58:59;;;;;;;7.30;4.70;;;;;;;17.95;63.91;100252.10;105357;1259;64840;-65
2023/07/11 04:01:26;;;;;;;7.30;4.60;;;;;;;17.98;64.16;100251.52;105555;1254;60658;-56
2023/07/11 04:03:54;;;;;;;9.30;5.10;;;;;;;18.10;64.13;100251.28;105652;1259;60511;-62
2023/07/11 04:06:22;;;;;;;7.40;4.10;;;;;;;18.24;63.96;100249.67;105414;1254;65038;-60
2023/07/11 04:08:49;;;;;;;8.60;4.50;;;;;;;18.35;63.93;100252.70;105579;1260;61400;-61
2023/07/11 04:11:17;;;;;;;7.00;4.80;;;;;;;18.43;63.81;100249.31;105381;1259;63672;-61
2023/07/11 04:13:44;;;;;;;7.10;4.70;;;;;;;18.46;63.68;100245.89;105426;1258;60559;-62
2023/07/11 04:16:12;;;;;;;10.20;4.90;;;;;;;18.48;63.75;100242.61;105434;1260;60457;-63
2023/07/11 04:18:40;;;;;;;10.10;5.10;;;;;;;18.56;63.68;100236.36;105380;1257;65087;-61
2023/07/11 04:21:07;;;;;;;9.60;4.90;;;;;;;18.69;63.72;100236.98;105515;1254;61371;-62
2023/07/11 04:23:35;;;;;;;7.80;4.80;;;;;;;18.80;63.68;100230.23;105483;1254;62434;-62
2023/07/11 04:26:02;;;;;;;7.40;4.70;;;;;;;18.89;63.69;100233.23;105350;1260;60629;-61
2023/07/11 04:28:30;;;;;;;8.90;5.10;;;;;;;18.99;63.81;100242.80;105524;1257;60639;-62
2023/07/11 04:30:58;;;;;;;10.50;4.90;;;;;;;19.07;63.92;100244.27;105505;1256;73766;-62
2023/07/11 04:33:25;;;;;;;8.90;5.30;;;;;;;19.15;63.77;100244.86;105472;1259;60482;-62
2023/07/11 04:35:53;;;;;;;6.70;4.50;;;;;;;19.21;63.11;100252.23;105350;1259;64175;-62
2023/07/11 04:38:20;;;;;;;7.30;4.90;;;;;;;19.29;62.82;100260.96;105500;1254;60594;-62
2023/07/11 04:40:47;;;;;;;6.90;4.50;;;;;;;19.33;63.02;100260.77;105521;1254;60766;-66
2023/07/11 04:43:15;;;;;;;7.40;4.60;;;;;;;19.35;63.10;100256.29;105432;1259;66018;-61
2023/07/11 04:45:43;;;;;;;9.40;5.10;;;;;;;19.38;62.95;100260.73;105401;1259;61843;-61
2023/07/11 04:48:10;;;;;;;6.00;4.10;;;;;;;19.46;62.99;100259.48;105731;1260;63723;-63
2023/07/11 04:50:38;;;;;;;6.80;4.50;;;;;;;19.51;62.23;100257.42;105964;1254;60552;-63
2023/07/11 04:53:05;;;;;;;6.90;4.40;;;;;;;19.55;62.10;100253.27;106062;1255;60476;-62
2023/07/11 04:55:33;;;;;;;7.30;4.50;;;;;;;19.58;61.91;100256.06;105925;1254;63663;-63
2023/07/11 04:58:00;;;;;;;8.80;4.70;;;;;;;19.60;61.54;100256.57;105839;1260;60452;-61
2023/07/11 05:00:28;;;;;;;6.70;4.00;;;;;;;19.62;61.42;100255.42;105878;1257;62464;-62
2023/07/11 05:02:56;;;;;;;7.90;4.20;;;;;;;19.68;61.18;100254.27;105883;1258;60587;-62
2023/07/11 05:05:23;;;;;;;7.30;3.70;;;;;;;19.76;61.06;100255.14;105769;1255;60648;-61
2023/07/11 05:07:51;;;;;;;6.50;4.20;;;;;;;19.84;61.12;100256.84;109080;1254;65074;-61
2023/07/11 05:10:18;;;;;;;8.70;4.30;;;;;;;19.93;60.91;100252.91;109231;1254;61402;-61
2023/07/11 05:12:45;;;;;;;7.80;4.10;;;;;;;20.00;60.49;100247.95;109008;1254;62539;-61
2023/07/11 05:15:13;;;;;;;6.90;3.90;;;;;;;20.05;60.53;100248.05;109142;1257;58525;-61
2023/07/11 05:17:40;;;;;;;7.90;4.80;;;;;;;20.12;60.49;100250.21;109083;1259;58369;-60
2023/07/11 05:20:08;;;;;;;9.30;4.40;;;;;;;20.21;60.42;100251.77;109129;1254;63644;-61
2023/07/11 05:22:36;;;;;;;6.60;3.80;;;;;;;20.30;59.85;100251.59;106329;1256;60524;-60
2023/07/11 05:25:04;;;;;;;6.90;4.10;;;;;;;20.35;59.32;100252.47;105371;1259;63724;-62
2023/07/11 05:27:34;;;;;;;7.50;4.40;;;;;;;20.37;59.23;100249.16;105867;1255;60477;-60
2023/07/11 05:30:01;;;;;;;6.40;3.80;;;;;;;20.38;59.09;100254.19;105477;1259;60451;-61
2023/07/11 05:32:29;;;;;;;7.60;4.30;;;;;;;20.42;59.08;100254.77;106005;1258;65364;-60
2023/07/11 05:34:57;;;;;;;6.10;3.80;;;;;;;20.47;58.99;100254.36;105456;1259;61075;-61
2023/07/11 05:37:25;;;;;;;6.90;4.40;;;;;;;20.51;59.10;100250.58;105519;1254;63709;-61
2023/07/11 05:39:52;;;;;;;8.60;4.30;;;;;;;20.56;59.13;100244.08;105491;1260;60595;-61
2023/07/11 05:42:20;;;;;;;7.50;4.00;;;;;;;20.60;59.05;100247.49;105390;1259;60479;-60
2023/07/11 05:44:47;;;;;;;8.90;3.80;;;;;;;20.67;59.03;100250.63;105681;1267;64962;-62
2023/07/11 05:47:15;;;;;;;6.10;3.80;;;;;;;20.76;58.87;100247.54;105657;1259;60484;-62
2023/07/11 05:49:42;;;;;;;8.30;4.20;;;;;;;20.83;58.67;100248.63;105880;1259;63672;-62
2023/07/11 05:52:10;;;;;;;6.70;4.20;;;;;;;20.86;58.40;100248.19;105983;1260;60555;-62
2023/07/11 05:54:37;;;;;;;7.20;4.30;;;;;;;20.88;58.47;100250.11;105514;1260;60947;-62
2023/07/11 05:57:05;;;;;;;8.70;4.10;;;;;;;20.92;58.04;100247.70;105420;1261;65021;-64
2023/07/11 05:59:33;;;;;;;7.20;3.70;;;;;;;20.99;57.84;100244.71;105726;1260;60511;-56
2023/07/11 06:02:00;;;;;;;7.00;4.00;;;;;;;21.06;57.33;100242.38;105288;1263;63756;-60
2023/07/11 06:04:28;;;;;;;7.10;3.70;;;;;;;21.09;56.75;100241.74;105568;1260;60572;-60
2023/07/11 06:06:56;;;;;;;6.80;3.70;;;;;;;21.13;56.13;100242.14;105405;1260;60457;-60
2023/07/11 06:09:25;;;;;;;8.90;4.20;;;;;;;21.16;56.21;100244.30;105359;1258;64948;-59
2023/07/11 06:11:52;;;;;;;7.60;3.70;;;;;;;21.16;55.97;100240.55;105531;1254;61344;-59
2023/07/11 06:14:22;;;;;;;5.70;3.70;;;;;;;21.15;55.32;100238.32;105421;1260;62442;-60
2023/07/11 06:16:50;;;;;;;5.90;3.50;;;;;;;21.14;55.18;100236.06;105406;1259;60481;-59
2023/07/11 06:19:18;;;;;;;6.50;3.60;;;;;;;21.15;55.17;100238.38;105426;1254;60447;-62
2023/07/11 06:21:46;;;;;;;6.70;3.70;;;;;;;21.15;55.08;100235.48;105404;1259;64948;-61
2023/07/11 06:24:13;;;;;;;6.10;3.30;;;;;;;21.20;55.14;100234.33;105361;1259;61637;-62
2023/07/11 06:26:41;;;;;;;6.80;3.30;;;;;;;21.26;54.48;100231.00;105350;1260;63674;-59
2023/07/11 06:29:08;;;;;;;7.80;2.80;;;;;;;21.30;54.01;100231.10;105436;1259;60472;-57
2023/07/11 06:31:36;;;;;;;5.70;3.70;;;;;;;21.33;53.44;100230.83;105272;1260;60484;-59
2023/07/11 06:34:04;;;;;;;7.90;3.70;;;;;;;21.37;54.31;100226.14;105338;1257;64976;-59
2023/07/11 06:36:31;;;;;;;7.60;3.80;;;;;;;21.40;54.29;100223.74;105348;1259;61344;-59
2023/07/11 06:38:59;;;;;;;6.80;3.90;;;;;;;21.43;54.11;100224.98;105374;1260;63849;-60
2023/07/11 06:41:28;;;;;;;7.00;4.10;;;;;;;21.44;54.23;100228.45;105386;1259;60461;-59
2023/07/11 06:43:56;;;;;;;13.40;4.60;;;;;;;21.46;54.28;100231.02;105447;1259;60507;-58
2023/07/11 06:46:24;;;;;;;6.70;3.60;;;;;;;21.52;54.18;100233.66;105418;1256;63664;-60
2023/07/11 06:48:54;;;;;;;9.20;3.30;;;;;;;21.61;53.23;100232.52;105505;1260;61953;-58
2023/07/11 06:51:22;;;;;;;9.70;3.90;;;;;;;21.72;53.21;100231.78;105248;1254;423626;-64
2023/07/11 07:06:49;;;;;;;5.70;3.40;;;;;;;22.05;51.47;100221.77;103238;1283;603788;-61
2023/07/11 07:09:23;;;;;;;5.20;3.30;;;;;;;22.61;49.58;100216.55;104280;1264;378047;-59
2023/07/11 07:11:54;;;;;;;6.50;3.20;;;;;;;22.68;49.35;100214.10;104136;1278;59440;-59
2023/07/11 07:14:22;;;;;;;5.20;3.00;;;;;;;22.71;48.70;100212.91;104513;1269;62099;-59
2023/07/11 07:16:49;;;;;;;5.60;3.40;;;;;;;22.70;48.38;100212.13;104527;1267;61424;-60
2023/07/11 07:19:17;;;;;;;7.30;2.90;;;;;;;22.72;48.51;100213.86;104591;1267;63766;-71
2023/07/11 07:21:45;;;;;;;7.30;3.10;;;;;;;22.71;47.73;100212.02;105042;1267;59365;-58
2023/07/11 07:24:12;;;;;;;6.70;3.30;;;;;;;22.72;47.71;100215.98;104687;1269;59388;-59
2023/07/11 07:26:41;;;;;;;6.60;2.80;;;;;;;22.72;48.20;100213.95;104682;1269;63287;-57
2023/07/11 07:29:09;;;;;;;6.90;3.20;;;;;;;22.72;47.68;100214.94;104698;1269;69059;-64
2023/07/11 07:31:36;;;;;;;8.10;3.20;;;;;;;22.69;48.24;100210.23;104806;1269;63657;-62
2023/07/11 07:34:06;;;;;;;7.40;3.80;;;;;;;22.71;48.73;100209.09;104473;1269;59748;-60
2023/07/11 07:36:34;;;;;;;5.90;3.10;;;;;;;22.72;47.88;100207.30;104779;1270;59565;-61
2023/07/11 07:39:01;;;;;;;6.10;3.50;;;;;;;22.72;48.30;100208.95;104778;1269;64140;-61
2023/07/11 07:41:31;;;;;;;5.70;3.20;;;;;;;22.72;47.83;100210.06;104666;1271;71001;-61
2023/07/11 07:43:59;;;;;;;6.70;4.10;;;;;;;22.68;47.89;100207.17;104984;1264;63750;-61
2023/07/11 07:46:26;;;;;;;5.80;3.60;;;;;;;22.62;47.93;100206.20;105278;1263;59755;-60
2023/07/11 07:48:54;;;;;;;8.00;3.90;;;;;;;22.53;47.88;100209.79;105204;1263;60305;-66
2023/07/11 07:51:21;;;;;;;6.70;3.20;;;;;;;22.45;47.68;100219.00;105357;1262;64091;-60
2023/07/11 07:53:49;;;;;;;5.40;3.10;;;;;;;22.39;47.41;100213.89;105103;1263;60096;-61
2023/07/11 07:56:19;;;;;;;6.20;3.20;;;;;;;22.36;47.95;100213.60;105029;1263;63787;-62
2023/07/11 07:58:47;;;;;;;7.40;3.50;;;;;;;22.36;47.50;100214.84;105529;1263;59733;-59
2023/07/11 08:01:16;;;;;;;7.10;3.50;;;;;;;22.34;47.57;100215.79;108892;1257;58753;-60
2023/07/11 08:03:43;;;;;;;6.20;3.60;;;;;;;22.35;47.85;100215.21;108932;1258;62895;-62
2023/07/11 08:06:12;;;;;;;8.70;3.10;;;;;;;22.37;47.94;100216.41;105318;1263;62345;-62
2023/07/11 08:08:44;;;;;;;5.80;3.00;;;;;;;22.42;48.14;100213.69;105441;1260;63708;-61
2023/07/11 08:11:12;;;;;;;6.60;3.40;;;;;;;22.46;47.75;100214.06;105200;1261;59672;-60
2023/07/11 08:13:40;;;;;;;5.50;3.10;;;;;;;22.47;47.66;100216.50;105221;1263;59726;-61
2023/07/11 08:16:26;;;;;;;5.80;3.00;;;;;;;22.48;47.47;100214.77;105344;1260;64234;-60
2023/07/11 08:19:04;;;;;;;6.30;3.30;;;;;;;22.52;47.17;100215.42;105180;1267;61470;-59
2023/07/11 08:21:37;;;;;;;6.20;3.20;;;;;;;22.58;46.49;100215.35;105276;1260;63787;-59
2023/07/11 08:24:06;;;;;;;6.40;3.10;;;;;;;22.64;46.60;100208.80;105335;1260;59614;-59
2023/07/11 08:26:34;;;;;;;7.10;2.90;;;;;;;22.71;46.08;100209.03;105407;1258;59752;-59
2023/07/11 08:29:02;;;;;;;5.80;2.80;;;;;;;22.77;45.66;100210.23;105297;1257;64090;-59
2023/07/11 08:31:46;;;;;;;7.30;3.00;;;;;;;22.81;45.75;100206.80;105402;1264;61358;-62
2023/07/11 08:34:15;;;;;;;5.40;2.40;;;;;;;22.86;45.93;100207.45;105356;1267;63657;-63
2023/07/11 08:36:44;;;;;;;5.70;3.30;;;;;;;22.90;44.80;100204.41;105585;1257;60069;-59
2023/07/11 08:39:12;;;;;;;6.50;2.60;;;;;;;22.93;45.65;100208.11;105295;1261;59554;-63
2023/07/11 08:41:44;;;;;;;6.40;2.80;;;;;;;22.99;45.18;100205.05;105310;1257;64115;-61
2023/07/11 08:44:35;;;;;;;9.50;2.80;;;;;;;23.04;44.32;100207.85;105310;1257;61351;-60
2023/07/11 08:47:10;;;;;;;5.50;2.80;;;;;;;23.09;43.55;100203.27;105443;1262;66253;-57
2023/07/11 08:49:50;;;;;;;5.40;2.60;;;;;;;23.12;43.23;100198.57;105292;1263;61217;-59
2023/07/11 08:52:18;;;;;;;5.10;2.70;;;;;;;23.16;42.99;100200.70;105348;1263;59707;-59
2023/07/11 08:55:03;;;;;;;6.50;2.70;;;;;;;23.19;43.72;100196.33;105211;1270;64175;-59
2023/07/11 08:57:34;;;;;;;5.60;2.50;;;;;;;23.22;43.17;100197.39;105341;1258;61402;-61
2023/07/11 09:00:14;;;;;;;6.10;2.70;;;;;;;23.22;43.11;100193.27;105182;1258;63666;-58
2023/07/11 09:03:30;;;;;;;6.20;2.60;;;;;;;23.21;43.42;100190.04;105286;1257;59653;-61
2023/07/11 09:06:01;;;;;;;5.20;2.60;;;;;;;23.24;43.52;100190.15;104799;1269;59755;-60
2023/07/11 09:08:28;;;;;;;6.30;2.60;;;;;;;23.31;43.02;100193.52;104668;1267;64249;-60
2023/07/11 09:11:12;;;;;;;7.10;2.80;;;;;;;23.39;42.79;100196.34;104910;1263;62042;-60
2023/07/11 09:14:11;;;;;;;5.90;3.00;;;;;;;23.44;42.39;100193.23;105693;1262;63814;-60
2023/07/11 09:16:46;;;;;;;5.50;2.80;;;;;;;23.50;42.67;100195.36;105263;1263;59714;-59
2023/07/11 09:19:40;;;;;;;6.10;2.90;;;;;;;23.57;42.06;100197.61;105109;1262;59596;-60
2023/07/11 09:22:30;;;;;;;5.40;3.10;;;;;;;23.67;42.45;100193.19;105302;1261;72984;-60
2023/07/11 09:25:07;;;;;;;5.30;3.00;;;;;;;23.77;42.02;100193.21;105298;1264;61366;-62
2023/07/11 09:27:39;;;;;;;5.40;2.90;;;;;;;23.79;41.61;100192.05;105715;1263;63838;-61
2023/07/11 09:30:26;;;;;;;6.50;2.70;;;;;;;23.78;42.02;100190.20;105426;1257;59714;-61
2023/07/11 09:32:53;;;;;;;6.30;3.20;;;;;;;23.75;41.84;100187.81;105308;1263;59730;-62
2023/07/11 09:35:29;;;;;;;5.50;2.90;;;;;;;23.67;41.65;100194.75;105267;1258;64048;-61
2023/07/11 09:38:07;;;;;;;5.70;3.10;;;;;;;23.61;41.91;100194.79;105422;1263;61519;-60
2023/07/11 09:40:37;;;;;;;10.50;3.30;;;;;;;23.57;41.82;100193.81;105294;1262;62542;-61
2023/07/11 09:43:05;;;;;;;6.30;3.10;;;;;;;23.59;41.89;100188.92;105454;1261;59726;-58
2023/07/11 09:45:41;;;;;;;4.80;2.60;;;;;;;23.69;41.65;100187.39;105259;1257;59638;-61
2023/07/11 09:48:12;;;;;;;5.00;3.00;;;;;;;23.84;41.45;100184.45;106024;1260;62828;-63
2023/07/11 09:51:28;;;;;;;5.00;2.70;;;;;;;24.01;41.64;100181.98;105783;1262;60183;-62
2023/07/11 09:53:56;;;;;;;5.40;3.00;;;;;;;24.15;41.20;100180.96;105633;1258;64211;-61
2023/07/11 09:56:24;;;;;;;6.40;3.00;;;;;;;24.23;40.95;100178.30;105281;1257;59669;-62
2023/07/11 09:59:02;;;;;;;4.90;2.90;;;;;;;24.29;41.13;100177.46;105352;1261;59660;-61
2023/07/11 10:01:36;;;;;;;8.60;3.40;;;;;;;24.33;40.37;100179.98;105660;1262;62872;-62
2023/07/11 10:04:09;;;;;;;5.70;3.30;;;;;;;24.32;40.30;100184.00;105465;1258;61833;-61
2023/07/11 10:06:41;;;;;;;8.30;3.20;;;;;;;24.28;40.51;100185.91;105470;1261;62783;-61
2023/07/11 10:09:23;;;;;;;5.50;3.00;;;;;;;24.19;40.58;100184.36;105342;1257;59733;-59
2023/07/11 10:12:00;;;;;;;5.40;3.00;;;;;;;24.10;40.01;100185.95;105469;1258;59692;-60
2023/07/11 10:14:33;;;;;;;5.10;2.90;;;;;;;24.06;40.13;100185.07;105269;1263;64177;-60
2023/07/11 10:17:20;;;;;;;5.70;3.10;;;;;;;24.14;40.72;100181.30;105298;1263;60267;-60
2023/07/11 10:19:59;;;;;;;4.80;3.10;;;;;;;24.15;40.85;100179.06;104670;1270;63698;-62
2023/07/11 10:22:44;;;;;;;5.60;2.80;;;;;;;24.22;41.56;100177.27;105302;1261;59758;-59
2023/07/11 10:25:11;;;;;;;5.90;2.80;;;;;;;24.23;41.37;100179.33;105699;1263;59772;-60
2023/07/11 10:27:39;;;;;;;5.10;3.10;;;;;;;24.26;40.86;100180.14;105307;1257;64101;-60
2023/07/11 10:30:18;;;;;;;6.90;3.60;;;;;;;24.26;40.55;100180.35;105042;1257;62042;-60
2023/07/11 10:32:56;;;;;;;6.10;3.30;;;;;;;24.22;40.01;100179.70;105219;1258;63679;-59
2023/07/11 10:35:35;;;;;;;5.10;3.00;;;;;;;24.24;41.07;100180.23;105322;1262;59799;-60
2023/07/11 10:38:04;;;;;;;5.00;2.90;;;;;;;24.31;40.95;100179.56;105373;1263;61657;-60
2023/07/11 10:40:36;;;;;;;5.20;3.20;;;;;;;24.36;40.86;100182.67;105279;1257;64163;-61
2023/07/11 10:43:26;;;;;;;5.50;2.90;;;;;;;24.36;40.70;100183.65;105210;1257;61409;-62
2023/07/11 10:46:09;;;;;;;7.70;2.90;;;;;;;24.39;40.62;100180.67;105506;1263;62495;-61
2023/07/11 10:48:39;;;;;;;4.90;2.70;;;;;;;24.41;40.47;100183.66;105298;1260;59701;-62
2023/07/11 10:51:10;;;;;;;6.50;2.50;;;;;;;24.45;40.60;100182.96;105200;1262;59509;-61
2023/07/11 10:53:59;;;;;;;5.30;2.90;;;;;;;24.63;40.37;100181.09;105408;1258;62875;-58
2023/07/11 10:56:39;;;;;;;4.90;2.80;;;;;;;24.84;39.50;100181.74;105235;1257;61337;-61
2023/07/11 10:59:10;;;;;;;4.60;2.90;;;;;;;24.91;38.91;100174.60;105157;1258;64182;-63
2023/07/11 11:01:55;;;;;;;5.70;2.40;;;;;;;24.92;39.38;100174.67;105416;1263;59634;-61
2023/07/11 11:04:50;;;;;;;6.50;2.60;;;;;;;24.92;38.66;100173.93;105335;1263;59596;-62
2023/07/11 11:07:18;;;;;;;5.00;2.60;;;;;;;24.87;38.40;100174.96;105296;1258;64175;-61
2023/07/11 11:10:44;;;;;;;6.00;3.00;;;;;;;24.83;38.71;100173.52;105142;1257;60084;-64
2023/07/11 11:13:22;;;;;;;5.10;2.80;;;;;;;24.76;39.39;100180.46;105106;1260;63754;-65
2023/07/11 11:16:08;;;;;;;6.60;2.80;;;;;;;24.67;39.91;100181.49;105286;1260;59765;-66
2023/07/11 11:18:46;;;;;;;4.60;2.60;;;;;;;24.44;40.22;100179.89;106245;1258;59566;-64
2023/07/11 11:22:15;;;;;;;4.90;2.60;;;;;;;24.34;40.27;100182.98;105320;1262;64082;-67
2023/07/11 11:24:57;;;;;;;5.00;2.80;;;;;;;24.30;40.90;100182.42;104959;1270;61405;-65
2023/07/11 11:27:49;;;;;;;7.10;3.00;;;;;;;24.28;41.09;100178.17;105592;1261;63862;-64
2023/07/11 11:30:52;;;;;;;5.90;2.80;;;;;;;24.30;40.78;100176.95;105827;1257;60462;-67
2023/07/11 11:34:02;;;;;;;4.90;2.60;;;;;;;24.39;41.20;100175.77;105248;1269;60598;-65
2023/07/11 11:36:35;;;;;;;6.30;3.10;;;;;;;24.53;40.14;100172.86;105484;1267;63761;-63
2023/07/11 11:39:53;;;;;;;5.00;2.50;;;;;;;24.64;39.54;100169.77;105542;1257;61365;-59
2023/07/11 11:42:26;;;;;;;7.00;2.70;;;;;;;24.73;39.60;100166.34;105211;1263;62447;-62
2023/07/11 11:44:59;;;;;;;4.80;2.60;;;;;;;24.79;39.24;100167.81;105196;1257;60526;-63
2023/07/11 11:47:50;;;;;;;5.60;2.80;;;;;;;24.84;39.07;100165.65;105303;1257;60664;-63
2023/07/11 11:50:38;;;;;;;5.90;2.40;;;;;;;24.89;39.24;100163.64;105804;1263;63620;-64